createdAt,value
2018-11-11T00:00:19.027Z,34.9
2018-11-11T00:01:10.343Z,34.9
2018-11-11T00:02:00.472Z,34.9
2018-11-11T00:02:49.736Z,34.9
2018-11-11T00:03:40.047Z,34.9
2018-11-11T00:04:29.619Z,34.9
2018-11-11T00:05:19.431Z,34.9
2018-11-11T00:06:09.401Z,34.9
2018-11-11T00:07:00.546Z,34.9
2018-11-11T00:25:07.755Z,34.8
2018-11-11T00:25:59.215Z,34.8
2018-11-11T00:26:48.407Z,34.8
2018-11-11T00:27:39.655Z,34.8
2018-11-11T00:28:30.735Z,34.8
2018-11-11T00:29:20.060Z,34.8
2018-11-11T00:30:08.672Z,34.8
2018-11-11T00:30:58.783Z,34.8
2018-11-11T00:31:48.852Z,34.8
2018-11-11T00:32:38.794Z,34.7
2018-11-11T00:33:29.727Z,34.7
2018-11-11T00:34:19.027Z,34.8
2018-11-11T00:35:09.606Z,34.7
2018-11-11T00:35:59.319Z,34.7
2018-11-11T00:36:49.170Z,34.7
2018-11-11T00:37:40.357Z,34.7
2018-11-11T00:38:29.520Z,34.7
2018-11-11T00:39:20.209Z,34.7
2018-11-11T00:40:09.025Z,34.6
2018-11-11T00:40:59.804Z,34.7
2018-11-11T00:41:50.641Z,34.7
2018-11-11T00:42:39.954Z,34.7
2018-11-11T00:43:29.892Z,34.7
2018-11-11T00:44:19.221Z,34.6
2018-11-11T00:45:09.741Z,34.6
2018-11-11T00:45:59.559Z,34.6
2018-11-11T00:46:49.642Z,34.6
2018-11-11T00:47:40.085Z,34.6
2018-11-11T00:48:29.682Z,34.6
2018-11-11T00:49:19.499Z,34.6
2018-11-11T00:50:10.144Z,34.6
2018-11-11T00:51:01.479Z,34.6
2018-11-11T00:51:51.018Z,34.6
2018-11-11T00:52:40.021Z,34.6
2018-11-11T00:53:30.595Z,34.6
2018-11-11T00:54:20.658Z,34.6
2018-11-11T00:55:10.289Z,34.6
2018-11-11T00:56:01.008Z,34.6
2018-11-11T00:56:51.671Z,34.6
2018-11-11T00:57:40.637Z,34.6
2018-11-11T00:58:31.586Z,34.6
2018-11-11T00:59:21.839Z,34.6
2018-11-11T01:00:11.321Z,34.6
2018-11-11T01:01:01.413Z,34.6
2018-11-11T01:01:51.168Z,34.6
2018-11-11T01:02:41.246Z,34.6
2018-11-11T01:03:31.682Z,34.6
2018-11-11T01:04:21.745Z,34.6
2018-11-11T01:05:11.550Z,34.5
2018-11-11T01:06:01.559Z,34.5
2018-11-11T01:06:51.432Z,34.5
2018-11-11T01:07:41.296Z,34.5
2018-11-11T01:08:32.240Z,34.5
2018-11-11T01:09:22.266Z,34.5
2018-11-11T01:10:12.098Z,34.5
2018-11-11T01:11:02.168Z,34.5
2018-11-11T01:11:51.610Z,34.5
2018-11-11T01:12:41.797Z,34.5
2018-11-11T01:13:31.527Z,34.5
2018-11-11T01:14:21.865Z,34.5
2018-11-11T01:15:11.875Z,34.4
2018-11-11T01:16:02.854Z,34.4
2018-11-11T01:16:52.623Z,34.5
2018-11-11T01:17:42.304Z,34.4
2018-11-11T01:18:32.407Z,34.4
2018-11-11T01:19:23.018Z,34.4
2018-11-11T01:20:12.827Z,34.4
2018-11-11T01:21:03.074Z,34.4
2018-11-11T01:21:53.282Z,34.4
2018-11-11T01:22:42.796Z,34.4
2018-11-11T01:23:31.942Z,34.4
2018-11-11T01:24:22.897Z,34.4
2018-11-11T01:25:12.946Z,34.4
2018-11-11T01:26:02.968Z,34.4
2018-11-11T01:26:53.524Z,34.4
2018-11-11T01:27:42.600Z,34.4
2018-11-11T01:28:32.916Z,34.4
2018-11-11T01:29:22.322Z,34.4
2018-11-11T01:30:12.841Z,34.4
2018-11-11T01:31:02.901Z,34.4
2018-11-11T01:31:52.437Z,34.4
2018-11-11T01:32:43.537Z,34.4
2018-11-11T01:33:32.794Z,34.4
2018-11-11T01:34:23.052Z,34.3
2018-11-11T01:35:12.339Z,34.4
2018-11-11T01:36:04.261Z,34.3
2018-11-11T01:36:53.540Z,34.3
2018-11-11T01:37:44.123Z,34.3
2018-11-11T01:38:33.340Z,34.3
2018-11-11T01:39:22.934Z,34.3
2018-11-11T01:40:14.099Z,34.3
2018-11-11T01:41:03.824Z,34.3
2018-11-11T01:41:54.059Z,34.3
2018-11-11T01:42:44.618Z,34.3
2018-11-11T01:43:33.301Z,34.3
2018-11-11T01:44:24.120Z,34.3
2018-11-11T01:45:13.536Z,34.3
2018-11-11T01:46:03.915Z,34.3
2018-11-11T01:46:54.236Z,34.3
2018-11-11T01:47:43.230Z,34.3
2018-11-11T01:48:34.048Z,34.3
2018-11-11T01:49:24.151Z,34.3
2018-11-11T01:50:14.273Z,34.3
2018-11-11T01:51:04.619Z,34.3
2018-11-11T01:51:54.623Z,34.3
2018-11-11T01:52:44.375Z,34.3
2018-11-11T01:53:34.413Z,34.3
2018-11-11T01:54:24.203Z,34.3
2018-11-11T01:55:14.854Z,34.3
2018-11-11T01:56:03.353Z,34.2
2018-11-11T01:56:54.269Z,34.2
2018-11-11T01:57:44.707Z,34.3
2018-11-11T01:58:34.575Z,34.3
2018-11-11T01:59:24.675Z,34.2
2018-11-11T02:00:13.427Z,34.2
2018-11-11T02:01:05.683Z,34.2
2018-11-11T02:01:54.125Z,34.2
2018-11-11T02:02:45.602Z,34.2
2018-11-11T02:03:34.953Z,34.2
2018-11-11T02:04:26.022Z,34.2
2018-11-11T02:05:15.080Z,34.2
2018-11-11T02:06:05.626Z,34.2
2018-11-11T02:06:55.689Z,34.1
2018-11-11T02:07:45.187Z,34.1
2018-11-11T02:08:36.120Z,34.1
2018-11-11T02:09:25.543Z,34.1
2018-11-11T02:10:15.359Z,34.1
2018-11-11T02:11:05.096Z,34.1
2018-11-11T02:11:56.122Z,34.1
2018-11-11T02:12:46.936Z,34.1
2018-11-11T02:13:36.472Z,34.1
2018-11-11T02:14:26.289Z,34.1
2018-11-11T02:15:15.996Z,34.1
2018-11-11T02:16:06.348Z,34.1
2018-11-11T02:16:56.101Z,34.1
2018-11-11T02:17:46.507Z,34.1
2018-11-11T02:18:36.278Z,34.1
2018-11-11T02:19:25.817Z,34.1
2018-11-11T02:20:16.937Z,34.1
2018-11-11T02:21:06.203Z,34.1
2018-11-11T02:21:57.026Z,34.1
2018-11-11T02:22:47.019Z,34.1
2018-11-11T02:23:38.213Z,34.1
2018-11-11T02:24:26.935Z,34.1
2018-11-11T02:25:16.431Z,34.1
2018-11-11T02:26:07.564Z,34.1
2018-11-11T02:26:58.192Z,34.1
2018-11-11T02:27:47.682Z,34.1
2018-11-11T02:28:36.755Z,34.1
2018-11-11T02:29:26.427Z,34.1
2018-11-11T02:30:17.178Z,34.1
2018-11-11T02:31:07.131Z,34
2018-11-11T02:31:57.833Z,34
2018-11-11T02:32:47.098Z,34
2018-11-11T02:33:37.401Z,34
2018-11-11T02:34:27.646Z,34
2018-11-11T02:35:17.516Z,34
2018-11-11T02:36:07.890Z,34
2018-11-11T02:36:57.236Z,34
2018-11-11T02:37:49.439Z,34
2018-11-11T02:38:36.925Z,34
2018-11-11T02:39:28.540Z,33.9
2018-11-11T02:40:18.044Z,34
2018-11-11T02:41:08.106Z,34
2018-11-11T02:41:58.225Z,33.9
2018-11-11T02:42:47.427Z,33.9
2018-11-11T02:43:38.857Z,33.9
2018-11-11T02:44:28.644Z,33.9
2018-11-11T02:45:18.775Z,33.9
2018-11-11T02:46:07.703Z,33.9
2018-11-11T02:46:58.072Z,33.9
2018-11-11T02:47:48.526Z,33.9
2018-11-11T02:48:39.027Z,33.9
2018-11-11T02:49:28.448Z,33.9
2018-11-11T02:50:17.775Z,33.9
2018-11-11T02:51:08.725Z,33.9
2018-11-11T02:51:58.464Z,33.9
2018-11-11T02:52:48.209Z,33.9
2018-11-11T02:53:38.212Z,33.9
2018-11-11T02:54:28.054Z,33.9
2018-11-11T02:55:19.259Z,33.9
2018-11-11T02:56:09.282Z,33.9
2018-11-11T02:56:59.042Z,33.9
2018-11-11T02:57:48.496Z,33.9
2018-11-11T02:58:39.161Z,33.9
2018-11-11T02:59:28.273Z,33.9
2018-11-11T03:00:19.584Z,33.9
2018-11-11T03:01:10.111Z,33.9
2018-11-11T03:01:58.932Z,33.8
2018-11-11T03:02:49.379Z,33.9
2018-11-11T03:03:40.305Z,33.8
2018-11-11T03:04:30.693Z,33.8
2018-11-11T03:05:20.057Z,33.8
2018-11-11T03:06:10.276Z,33.8
2018-11-11T03:07:00.195Z,33.8
2018-11-11T03:07:50.368Z,33.8
2018-11-11T03:08:39.389Z,33.8
2018-11-11T03:09:31.533Z,33.8
2018-11-11T03:10:21.087Z,33.8
2018-11-11T03:11:10.706Z,33.8
2018-11-11T03:12:01.470Z,33.8
2018-11-11T03:12:51.014Z,33.8
2018-11-11T03:13:41.076Z,33.8
2018-11-11T03:14:30.975Z,33.8
2018-11-11T03:15:21.471Z,33.8
2018-11-11T03:16:09.713Z,33.8
2018-11-11T03:17:01.553Z,33.8
2018-11-11T03:17:51.075Z,33.8
2018-11-11T03:18:41.035Z,33.8
2018-11-11T03:19:31.327Z,33.8
2018-11-11T03:20:21.962Z,33.8
2018-11-11T03:21:10.988Z,33.8
2018-11-11T03:22:01.383Z,33.8
2018-11-11T03:22:50.911Z,33.8
2018-11-11T03:23:41.753Z,33.8
2018-11-11T03:24:32.094Z,33.8
2018-11-11T03:25:21.658Z,33.7
2018-11-11T03:26:11.367Z,33.7
2018-11-11T03:27:01.675Z,33.7
2018-11-11T03:27:51.787Z,33.7
2018-11-11T03:28:41.844Z,33.7
2018-11-11T03:29:32.223Z,33.7
2018-11-11T03:30:21.990Z,33.7
2018-11-11T03:31:11.902Z,33.7
2018-11-11T03:32:02.730Z,33.7
2018-11-11T03:32:52.656Z,33.7
2018-11-11T03:33:41.750Z,33.7
2018-11-11T03:34:33.092Z,33.7
2018-11-11T03:35:20.896Z,33.7
2018-11-11T03:36:12.079Z,33.7
2018-11-11T03:37:03.136Z,33.7
2018-11-11T03:37:52.767Z,33.6
2018-11-11T03:38:41.097Z,33.6
2018-11-11T03:39:32.416Z,33.6
2018-11-11T03:40:21.458Z,33.6
2018-11-11T03:41:11.959Z,33.6
2018-11-11T03:42:02.138Z,33.6
2018-11-11T03:42:52.636Z,33.6
2018-11-11T03:43:42.906Z,33.6
2018-11-11T03:44:32.218Z,33.6
2018-11-11T03:45:23.052Z,33.6
2018-11-11T03:46:12.817Z,33.6
2018-11-11T03:47:03.249Z,33.6
2018-11-11T03:47:53.511Z,33.6
2018-11-11T03:48:42.739Z,33.6
2018-11-11T03:49:32.968Z,33.6
2018-11-11T03:50:23.251Z,33.6
2018-11-11T03:51:13.123Z,33.6
2018-11-11T03:52:03.728Z,33.6
2018-11-11T03:52:54.121Z,33.6
2018-11-11T03:53:42.781Z,33.6
2018-11-11T03:54:33.886Z,33.6
2018-11-11T03:55:24.515Z,33.6
2018-11-11T03:56:13.518Z,33.6
2018-11-11T03:57:04.649Z,33.6
2018-11-11T03:57:54.682Z,33.6
2018-11-11T03:58:44.987Z,33.5
2018-11-11T03:59:33.306Z,33.6
2018-11-11T04:00:24.551Z,33.6
2018-11-11T04:01:13.858Z,33.5
2018-11-11T04:02:03.368Z,33.5
2018-11-11T04:02:54.583Z,33.5
2018-11-11T04:03:44.584Z,33.5
2018-11-11T04:04:33.325Z,33.5
2018-11-11T04:05:23.470Z,33.5
2018-11-11T04:06:15.235Z,33.5
2018-11-11T04:07:04.963Z,33.5
2018-11-11T04:07:55.672Z,33.5
2018-11-11T04:08:43.918Z,33.5
2018-11-11T04:09:34.755Z,33.5
2018-11-11T04:10:25.782Z,33.5
2018-11-11T04:11:15.130Z,33.4
2018-11-11T04:12:04.680Z,33.4
2018-11-11T04:12:55.473Z,33.4
2018-11-11T04:13:45.573Z,33.4
2018-11-11T04:14:34.467Z,33.4
2018-11-11T04:15:25.644Z,33.4
2018-11-11T04:16:14.602Z,33.4
2018-11-11T04:17:05.992Z,33.4
2018-11-11T04:17:56.389Z,33.4
2018-11-11T04:18:45.981Z,33.4
2018-11-11T04:19:35.899Z,33.4
2018-11-11T04:20:26.102Z,33.4
2018-11-11T04:21:15.501Z,33.4
2018-11-11T04:22:06.146Z,33.4
2018-11-11T04:22:56.009Z,33.4
2018-11-11T04:23:45.999Z,33.4
2018-11-11T04:24:35.304Z,33.4
2018-11-11T04:25:26.288Z,33.4
2018-11-11T04:26:15.953Z,33.4
2018-11-11T04:27:06.549Z,33.4
2018-11-11T04:27:56.643Z,33.4
2018-11-11T04:28:46.741Z,33.4
2018-11-11T04:29:36.097Z,33.4
2018-11-11T04:30:26.313Z,33.4
2018-11-11T04:31:16.846Z,33.4
2018-11-11T04:32:06.875Z,33.4
2018-11-11T04:32:56.354Z,33.3
2018-11-11T04:33:46.711Z,33.4
2018-11-11T04:34:37.088Z,33.4
2018-11-11T04:35:27.376Z,33.4
2018-11-11T04:36:17.204Z,33.4
2018-11-11T04:54:20.292Z,33.2
2018-11-11T04:55:09.990Z,33.3
2018-11-11T04:56:00.546Z,33.3
2018-11-11T04:56:50.401Z,33.2
2018-11-11T04:57:40.698Z,33.3
2018-11-11T04:58:30.458Z,33.3
2018-11-11T04:59:20.453Z,33.3
2018-11-11T05:00:10.888Z,33.2
2018-11-11T05:00:59.925Z,33.2
2018-11-11T05:01:50.993Z,33.2
2018-11-11T05:02:39.854Z,33.2
2018-11-11T05:03:30.091Z,33.2
2018-11-11T05:04:21.199Z,33.2
2018-11-11T05:05:11.359Z,33.2
2018-11-11T05:06:00.373Z,33.2
2018-11-11T05:06:51.281Z,33.2
2018-11-11T05:07:41.367Z,33.2
2018-11-11T05:08:31.073Z,33.2
2018-11-11T05:09:20.901Z,33.1
2018-11-11T05:10:11.184Z,33.1
2018-11-11T05:11:00.775Z,33.1
2018-11-11T05:11:50.807Z,33.1
2018-11-11T05:12:40.946Z,33.1
2018-11-11T05:13:30.320Z,33.1
2018-11-11T05:14:20.512Z,33.1
2018-11-11T05:15:10.638Z,33.1
2018-11-11T05:16:00.897Z,33.1
2018-11-11T05:16:51.475Z,33.1
2018-11-11T05:17:41.570Z,33.1
2018-11-11T05:18:31.442Z,33
2018-11-11T05:19:21.664Z,32.9
2018-11-11T05:20:11.817Z,32.9
2018-11-11T05:21:02.002Z,32.9
2018-11-11T05:21:52.511Z,32.9
2018-11-11T05:22:41.975Z,32.9
2018-11-11T05:23:31.535Z,32.8
2018-11-11T05:24:22.012Z,32.8
2018-11-11T05:25:11.529Z,32.8
2018-11-11T05:26:02.406Z,32.8
2018-11-11T05:26:52.487Z,32.8
2018-11-11T05:27:41.921Z,32.8
2018-11-11T05:28:31.692Z,32.8
2018-11-11T05:29:21.844Z,32.8
2018-11-11T05:30:12.377Z,32.8
2018-11-11T05:31:02.490Z,32.8
2018-11-11T05:31:52.636Z,32.8
2018-11-11T05:32:42.311Z,32.8
2018-11-11T05:33:32.148Z,32.8
2018-11-11T05:34:23.005Z,32.8
2018-11-11T05:35:12.091Z,32.7
2018-11-11T05:36:02.906Z,32.7
2018-11-11T05:36:52.907Z,32.7
2018-11-11T05:37:42.449Z,32.7
2018-11-11T05:38:32.164Z,32.7
2018-11-11T05:39:21.506Z,32.7
2018-11-11T05:40:12.541Z,32.7
2018-11-11T05:41:02.806Z,32.7
2018-11-11T05:41:53.051Z,32.7
2018-11-11T05:42:43.019Z,32.6
2018-11-11T05:43:33.161Z,32.6
2018-11-11T05:44:23.417Z,32.6
2018-11-11T05:45:13.761Z,32.6
2018-11-11T05:46:03.564Z,32.6
2018-11-11T05:46:52.840Z,32.6
2018-11-11T05:47:43.378Z,32.6
2018-11-11T05:48:33.120Z,32.6
2018-11-11T05:49:23.029Z,32.6
2018-11-11T05:50:13.160Z,32.6
2018-11-11T05:51:04.710Z,32.6
2018-11-11T05:51:53.558Z,32.6
2018-11-11T05:52:44.603Z,32.6
2018-11-11T05:53:33.852Z,32.6
2018-11-11T05:54:22.772Z,32.6
2018-11-11T05:55:14.545Z,32.6
2018-11-11T05:56:04.263Z,32.6
2018-11-11T05:56:53.529Z,32.6
2018-11-11T05:57:44.162Z,32.6
2018-11-11T05:58:35.060Z,32.6
2018-11-11T05:59:23.228Z,32.5
2018-11-11T06:00:14.575Z,32.5
2018-11-11T06:01:03.655Z,32.5
2018-11-11T06:01:53.874Z,32.5
2018-11-11T06:02:43.840Z,32.5
2018-11-11T06:03:34.027Z,32.5
2018-11-11T06:04:24.447Z,32.5
2018-11-11T06:05:13.850Z,32.5
2018-11-11T06:06:04.725Z,32.5
2018-11-11T06:06:53.127Z,32.5
2018-11-11T06:07:44.494Z,32.5
2018-11-11T06:08:35.315Z,32.4
2018-11-11T06:09:25.518Z,32.4
2018-11-11T06:10:14.844Z,32.5
2018-11-11T06:11:05.122Z,32.4
2018-11-11T06:11:55.719Z,32.4
2018-11-11T06:12:44.877Z,32.4
2018-11-11T06:13:34.983Z,32.4
2018-11-11T06:14:25.817Z,32.3
2018-11-11T06:15:15.514Z,32.3
2018-11-11T06:16:04.226Z,32.2
2018-11-11T06:16:56.138Z,32.2
2018-11-11T06:17:46.089Z,32.1
2018-11-11T06:18:36.396Z,32.1
2018-11-11T06:19:25.518Z,32.1
2018-11-11T06:20:15.582Z,32.1
2018-11-11T06:21:05.568Z,32.1
2018-11-11T06:21:57.024Z,32
2018-11-11T06:22:46.013Z,32
2018-11-11T06:23:35.741Z,32
2018-11-11T06:24:25.448Z,32
2018-11-11T06:25:16.440Z,32
2018-11-11T06:26:07.005Z,31.9
2018-11-11T06:26:56.001Z,31.9
2018-11-11T06:27:46.236Z,31.9
2018-11-11T06:28:36.078Z,31.9
2018-11-11T06:29:26.433Z,31.9
2018-11-11T06:30:16.486Z,31.9
2018-11-11T06:31:06.643Z,31.9
2018-11-11T06:31:57.391Z,31.9
2018-11-11T06:32:46.355Z,31.9
2018-11-11T06:33:36.996Z,31.9
2018-11-11T06:34:26.886Z,31.9
2018-11-11T06:35:17.121Z,31.9
2018-11-11T06:36:06.414Z,31.8
2018-11-11T06:36:56.225Z,31.8
2018-11-11T06:37:46.211Z,31.8
2018-11-11T06:38:36.828Z,31.8
2018-11-11T06:39:26.602Z,31.8
2018-11-11T06:40:15.627Z,31.8
2018-11-11T06:41:06.190Z,31.8
2018-11-11T06:41:57.090Z,31.8
2018-11-11T06:42:47.157Z,31.8
2018-11-11T06:43:36.362Z,31.8
2018-11-11T06:44:26.746Z,31.8
2018-11-11T06:45:16.775Z,31.8
2018-11-11T06:46:07.152Z,31.8
2018-11-11T06:46:57.920Z,31.8
2018-11-11T06:47:47.048Z,31.7
2018-11-11T06:48:37.462Z,31.7
2018-11-11T06:49:26.479Z,31.7
2018-11-11T06:50:18.394Z,31.7
2018-11-11T06:51:07.982Z,31.7
2018-11-11T06:51:57.784Z,31.7
2018-11-11T06:52:48.091Z,31.7
2018-11-11T06:53:37.956Z,31.7
2018-11-11T06:54:27.997Z,31.7
2018-11-11T06:55:17.474Z,31.6
2018-11-11T06:56:07.707Z,31.7
2018-11-11T06:56:57.220Z,31.6
2018-11-11T06:57:48.035Z,24.5
2018-11-11T06:58:38.115Z,23.2
2018-11-11T06:59:27.491Z,31.4
2018-11-11T07:00:17.791Z,34.6
2018-11-11T07:01:08.408Z,32.8
2018-11-11T07:01:57.976Z,30.5
2018-11-11T07:02:48.569Z,29.4
2018-11-11T07:03:37.949Z,28.9
2018-11-11T07:04:29.208Z,28.6
2018-11-11T07:05:17.924Z,28.6
2018-11-11T07:06:08.459Z,28.6
2018-11-11T07:06:59.811Z,28.6
2018-11-11T07:07:50.132Z,28.6
2018-11-11T07:08:39.989Z,28.8
2018-11-11T07:09:29.891Z,28.9
2018-11-11T07:10:19.728Z,28.9
2018-11-11T07:11:09.114Z,29.1
2018-11-11T07:11:59.517Z,29.2
2018-11-11T07:12:50.850Z,29.3
2018-11-11T07:13:39.076Z,29.4
2018-11-11T07:14:29.649Z,29.5
2018-11-11T07:15:19.222Z,26.9
2018-11-11T07:16:08.767Z,29.3
2018-11-11T07:16:59.996Z,36.4
2018-11-11T07:17:49.673Z,39.6
2018-11-11T07:18:39.901Z,39.3
2018-11-11T07:19:28.728Z,37.4
2018-11-11T07:20:20.208Z,35.8
2018-11-11T07:21:10.298Z,34.8
2018-11-11T07:22:00.898Z,34.7
2018-11-11T07:22:51.474Z,35.3
2018-11-11T07:23:40.207Z,36.2
2018-11-11T07:24:30.825Z,36.8
2018-11-11T07:25:20.700Z,37.1
2018-11-11T07:26:09.865Z,36.9
2018-11-11T07:27:00.715Z,36.7
2018-11-11T07:27:51.316Z,36.6
2018-11-11T07:28:40.252Z,36.6
2018-11-11T07:29:31.188Z,36.7
2018-11-11T07:30:20.837Z,36.8
2018-11-11T07:31:10.804Z,36.8
2018-11-11T07:32:00.277Z,36.6
2018-11-11T07:32:50.660Z,36.6
2018-11-11T07:33:41.257Z,36.6
2018-11-11T07:34:31.095Z,36.6
2018-11-11T07:35:20.809Z,36.7
2018-11-11T07:36:12.649Z,36.8
2018-11-11T07:37:01.423Z,36.9
2018-11-11T07:37:52.054Z,37.2
2018-11-11T07:38:41.768Z,37.4
2018-11-11T07:39:30.824Z,37.6
2018-11-11T07:40:21.359Z,37.8
2018-11-11T07:41:11.547Z,38.1
2018-11-11T07:42:02.627Z,38.4
2018-11-11T07:42:51.551Z,38.7
2018-11-11T07:43:42.069Z,38.9
2018-11-11T07:44:32.135Z,39.1
2018-11-11T07:45:21.824Z,39.3
2018-11-11T07:46:11.882Z,39.6
2018-11-11T07:47:02.053Z,39.8
2018-11-11T07:47:53.766Z,40.1
2018-11-11T07:48:42.196Z,40.3
2018-11-11T07:49:31.574Z,40.6
2018-11-11T07:50:22.653Z,40.9
2018-11-11T07:51:11.881Z,41.1
2018-11-11T07:52:02.911Z,41.4
2018-11-11T07:52:52.334Z,41.6
2018-11-11T07:53:42.096Z,41.8
2018-11-11T07:54:32.525Z,41.9
2018-11-11T07:55:22.819Z,42.2
2018-11-11T07:56:13.165Z,42.3
2018-11-11T07:57:02.075Z,42.5
2018-11-11T07:57:52.661Z,42.7
2018-11-11T07:58:42.801Z,42.9
2018-11-11T07:59:32.830Z,43.1
2018-11-11T08:00:22.883Z,43.3
2018-11-11T08:01:12.565Z,43.4
2018-11-11T08:02:03.079Z,43.6
2018-11-11T08:02:52.923Z,43.9
2018-11-11T08:03:42.567Z,44
2018-11-11T08:04:33.167Z,44.3
2018-11-11T08:05:22.183Z,44.4
2018-11-11T08:06:13.548Z,44.6
2018-11-11T08:07:03.358Z,44.8
2018-11-11T08:07:53.897Z,45
2018-11-11T08:08:43.144Z,45.1
2018-11-11T08:09:32.807Z,45.3
2018-11-11T08:10:23.845Z,45.5
2018-11-11T08:11:14.698Z,45.7
2018-11-11T08:12:03.455Z,45.8
2018-11-11T08:12:53.976Z,46
2018-11-11T08:13:44.057Z,46.2
2018-11-11T08:14:34.199Z,46.3
2018-11-11T08:15:22.889Z,46.5
2018-11-11T08:16:13.975Z,46.7
2018-11-11T08:17:04.202Z,46.9
2018-11-11T08:17:54.632Z,47.1
2018-11-11T08:18:43.646Z,47.3
2018-11-11T08:19:34.053Z,47.4
2018-11-11T08:20:24.784Z,47.6
2018-11-11T08:21:14.486Z,47.8
2018-11-11T08:22:04.772Z,47.9
2018-11-11T08:22:54.517Z,48.1
2018-11-11T08:23:44.482Z,48.3
2018-11-11T08:24:33.960Z,48.4
2018-11-11T08:25:25.205Z,48.6
2018-11-11T08:26:13.977Z,48.8
2018-11-11T08:27:03.556Z,48.9
2018-11-11T08:27:54.879Z,49.1
2018-11-11T08:28:44.291Z,49.2
2018-11-11T08:29:34.406Z,49.4
2018-11-11T08:30:24.834Z,49.5
2018-11-11T08:31:15.271Z,49.7
2018-11-11T08:32:05.934Z,49.9
2018-11-11T08:32:55.689Z,50.1
2018-11-11T08:33:45.001Z,50.2
2018-11-11T08:34:35.021Z,50.4
2018-11-11T08:35:25.281Z,50.6
2018-11-11T08:36:15.676Z,50.8
2018-11-11T08:37:05.989Z,50.9
2018-11-11T08:37:54.769Z,51.1
2018-11-11T08:38:46.423Z,51.2
2018-11-11T08:39:35.851Z,51.4
2018-11-11T08:40:26.337Z,51.5
2018-11-11T08:41:14.866Z,51.6
2018-11-11T08:42:05.806Z,51.8
2018-11-11T08:43:45.980Z,52.1
2018-11-11T08:44:35.978Z,52.3
2018-11-11T08:46:15.792Z,52.6
2018-11-11T08:47:05.858Z,52.8
2018-11-11T08:47:56.873Z,52.9
2018-11-11T08:48:46.580Z,53.1
2018-11-11T08:49:37.075Z,53.2
2018-11-11T08:50:25.813Z,53.4
2018-11-11T08:51:16.469Z,53.5
2018-11-11T08:52:07.082Z,53.6
2018-11-11T09:08:47.851Z,56
2018-11-11T09:09:37.007Z,56.1
2018-11-11T09:10:28.303Z,56.3
2018-11-11T09:11:18.793Z,56.3
2018-11-11T09:12:06.854Z,56.4
2018-11-11T09:12:57.082Z,56.6
2018-11-11T09:13:48.223Z,56.7
2018-11-11T09:14:37.908Z,56.8
2018-11-11T09:15:26.803Z,56.9
2018-11-11T09:16:18.145Z,57
2018-11-11T09:17:08.050Z,57.1
2018-11-11T09:17:57.986Z,57.3
2018-11-11T09:18:48.560Z,57.4
2018-11-11T09:19:38.109Z,57.5
2018-11-11T09:20:28.255Z,57.6
2018-11-11T09:22:08.330Z,57.9
2018-11-11T09:22:58.344Z,58
2018-11-11T09:23:47.834Z,58.1
2018-11-11T09:24:38.288Z,58.2
2018-11-11T09:25:28.890Z,58.3
2018-11-11T09:26:18.452Z,58.4
2018-11-11T09:27:09.478Z,58.4
2018-11-11T09:28:49.318Z,58.6
2018-11-11T09:29:40.567Z,58.7
2018-11-11T09:30:31.027Z,58.8
2018-11-11T09:31:19.780Z,58.9
2018-11-11T09:32:08.750Z,59
2018-11-11T09:32:58.734Z,59.1
2018-11-11T09:33:48.867Z,59.1
2018-11-11T09:34:39.167Z,59.2
2018-11-11T09:35:31.500Z,59.2
2018-11-11T09:36:19.442Z,59.3
2018-11-11T09:37:09.368Z,59.3
2018-11-11T09:37:59.504Z,59.4
2018-11-11T09:38:50.042Z,59.5
2018-11-11T09:39:40.440Z,59.6
2018-11-11T09:40:29.607Z,59.7
2018-11-11T09:41:20.359Z,59.8
2018-11-11T09:42:10.300Z,59.8
2018-11-11T09:42:59.372Z,59.9
2018-11-11T09:43:49.666Z,60
2018-11-11T09:44:39.781Z,60.1
2018-11-11T09:45:30.589Z,60.2
2018-11-11T09:46:21.175Z,60.2
2018-11-11T09:47:10.644Z,60.3
2018-11-11T09:48:01.616Z,60.3
2018-11-11T09:48:50.268Z,60.3
2018-11-11T09:49:40.343Z,60.3
2018-11-11T09:50:31.149Z,60.4
2018-11-11T09:51:20.050Z,60.5
2018-11-11T09:52:09.997Z,60.6
2018-11-11T09:53:00.010Z,60.6
2018-11-11T09:53:50.401Z,60.6
2018-11-11T09:54:40.713Z,60.7
2018-11-11T09:55:30.443Z,60.8
2018-11-11T09:56:21.433Z,60.9
2018-11-11T09:57:11.369Z,60.9
2018-11-11T09:58:00.662Z,61
2018-11-11T09:58:52.381Z,61.1
2018-11-11T09:59:43.001Z,61.1
2018-11-11T10:00:31.945Z,61.2
2018-11-11T10:01:20.423Z,61.3
2018-11-11T10:02:09.977Z,61.3
2018-11-11T10:03:01.614Z,61.4
2018-11-11T10:03:51.069Z,61.3
2018-11-11T10:04:41.121Z,61.3
2018-11-11T10:05:31.945Z,61.3
2018-11-11T10:06:21.740Z,61.3
2018-11-11T10:07:12.292Z,61.3
2018-11-11T10:08:00.994Z,61.3
2018-11-11T10:08:50.694Z,61.4
2018-11-11T10:09:41.234Z,61.4
2018-11-11T10:10:31.757Z,61.4
2018-11-11T10:11:22.212Z,61.5
2018-11-11T10:12:11.682Z,61.6
2018-11-11T10:13:01.113Z,61.6
2018-11-11T10:13:51.459Z,61.7
2018-11-11T10:14:41.681Z,61.8
2018-11-11T10:15:32.119Z,61.8
2018-11-11T10:16:22.246Z,61.8
2018-11-11T10:17:12.366Z,61.9
2018-11-11T10:18:02.927Z,61.9
2018-11-11T10:18:51.901Z,61.9
2018-11-11T10:19:42.146Z,62
2018-11-11T10:20:33.311Z,62.1
2018-11-11T10:21:23.209Z,62.1
2018-11-11T10:22:12.691Z,62.1
2018-11-11T10:23:02.063Z,62.2
2018-11-11T10:23:52.573Z,62.3
2018-11-11T10:24:42.007Z,62.3
2018-11-11T10:25:32.738Z,62.4
2018-11-11T10:26:23.760Z,62.5
2018-11-11T10:27:13.597Z,62.6
2018-11-11T10:28:02.621Z,62.6
2018-11-11T10:28:53.008Z,62.7
2018-11-11T10:29:42.922Z,62.7
2018-11-11T10:30:33.051Z,62.8
2018-11-11T10:31:22.775Z,62.8
2018-11-11T10:32:12.846Z,62.8
2018-11-11T10:33:03.414Z,62.9
2018-11-11T10:33:53.058Z,62.9
2018-11-11T10:34:43.490Z,63
2018-11-11T10:35:34.118Z,63.1
2018-11-11T10:36:23.663Z,63.1
2018-11-11T10:37:12.953Z,63.1
2018-11-11T10:38:04.245Z,63.1
2018-11-11T10:38:53.020Z,63.2
2018-11-11T10:39:44.720Z,63.3
2018-11-11T10:40:34.871Z,63.3
2018-11-11T10:41:23.135Z,63.4
2018-11-11T10:42:13.236Z,63.4
2018-11-11T10:43:03.925Z,63.6
2018-11-11T10:43:53.985Z,63.6
2018-11-11T10:44:43.611Z,63.7
2018-11-11T10:45:33.775Z,63.8
2018-11-11T10:46:23.908Z,63.8
2018-11-11T10:47:14.912Z,63.8
2018-11-11T10:48:04.759Z,63.8
2018-11-11T10:48:54.815Z,63.8
2018-11-11T10:49:45.177Z,63.8
2018-11-11T10:50:33.882Z,63.8
2018-11-11T10:51:25.064Z,63.9
2018-11-11T10:52:15.142Z,63.9
2018-11-11T10:53:04.704Z,63.9
2018-11-11T10:53:54.404Z,63.8
2018-11-11T10:54:46.129Z,63.6
2018-11-11T10:55:34.811Z,63.6
2018-11-11T10:56:24.479Z,63.6
2018-11-11T10:57:15.144Z,63.6
2018-11-11T10:58:05.168Z,63.6
2018-11-11T10:58:55.250Z,63.6
2018-11-11T10:59:45.126Z,63.6
2018-11-11T11:00:34.824Z,63.6
2018-11-11T11:01:24.786Z,63.6
2018-11-11T11:02:16.085Z,63.6
2018-11-11T11:03:05.584Z,63.7
2018-11-11T11:03:54.853Z,63.7
2018-11-11T11:04:45.176Z,63.8
2018-11-11T11:05:36.086Z,63.8
2018-11-11T11:06:26.377Z,63.8
2018-11-11T11:07:16.735Z,63.8
2018-11-11T11:08:06.199Z,63.8
2018-11-11T11:08:55.568Z,63.8
2018-11-11T11:09:45.773Z,63.7
2018-11-11T11:10:36.756Z,63.8
2018-11-11T11:11:26.149Z,63.8
2018-11-11T11:12:17.003Z,63.8
2018-11-11T11:13:07.360Z,63.8
2018-11-11T11:13:57.472Z,63.7
2018-11-11T11:14:47.240Z,63.6
2018-11-11T11:15:36.338Z,63.6
2018-11-11T11:16:26.144Z,63.6
2018-11-11T11:17:16.925Z,63.6
2018-11-11T11:18:06.478Z,63.6
2018-11-11T11:18:56.125Z,63.6
2018-11-11T11:19:47.660Z,63.6
2018-11-11T11:20:36.607Z,63.6
2018-11-11T11:21:26.897Z,63.6
2018-11-11T11:22:17.770Z,63.6
2018-11-11T11:23:08.353Z,63.6
2018-11-11T11:23:56.608Z,63.5
2018-11-11T11:24:46.822Z,63.4
2018-11-11T11:25:37.118Z,63.4
2018-11-11T11:26:27.265Z,63.4
2018-11-11T11:27:18.848Z,63.4
2018-11-11T11:28:07.157Z,63.4
2018-11-11T11:28:58.018Z,63.4
2018-11-11T11:29:47.475Z,63.4
2018-11-11T11:30:37.798Z,63.4
2018-11-11T11:31:28.739Z,63.4
2018-11-11T11:32:19.182Z,63.3
2018-11-11T11:33:07.942Z,63.4
2018-11-11T11:33:58.704Z,63.4
2018-11-11T11:34:48.399Z,63.4
2018-11-11T11:35:39.651Z,63.4
2018-11-11T11:36:28.283Z,63.5
2018-11-11T11:37:19.199Z,63.6
2018-11-11T11:38:09.068Z,63.6
2018-11-11T11:38:58.981Z,63.6
2018-11-11T11:39:48.618Z,63.6
2018-11-11T11:40:38.382Z,63.6
2018-11-11T11:41:29.454Z,63.6
2018-11-11T11:42:18.943Z,63.8
2018-11-11T11:43:08.134Z,63.8
2018-11-11T11:43:58.509Z,63.8
2018-11-11T11:44:48.049Z,63.9
2018-11-11T11:45:39.199Z,63.9
2018-11-11T11:46:28.739Z,63.9
2018-11-11T11:47:20.155Z,63.9
2018-11-11T11:48:09.388Z,63.9
2018-11-11T11:48:58.879Z,63.9
2018-11-11T11:49:48.670Z,63.9
2018-11-11T11:50:39.364Z,63.9
2018-11-11T11:51:29.134Z,63.9
2018-11-11T11:52:20.972Z,64
2018-11-11T11:53:10.736Z,64
2018-11-11T11:53:59.208Z,64
2018-11-11T11:54:49.601Z,63.9
2018-11-11T11:55:39.586Z,63.9
2018-11-11T11:56:29.703Z,63.9
2018-11-11T11:57:20.297Z,63.9
2018-11-11T11:58:08.977Z,63.9
2018-11-11T11:58:59.390Z,64
2018-11-11T11:59:49.960Z,64
2018-11-11T12:00:39.715Z,64.1
2018-11-11T12:01:30.096Z,64.1